Time;durP1;ratioP1;P1;durP2;ratioP2;P2;SDS_P1;SDS_P2;PMS_P1;PMS_P2;Temp;Humidity;BMP_temperature;BMP_pressure;BME280_temperature;BME280_humidity;BME280_pressure;Samples;Min_cycle;Max_cycle;Signal;HPM_P1;HPM_P2
2021/04/14 00:02:21;;;;;;;13.15;10.35;;;;;;;;;;5093874;28;20036;-61
2021/04/14 00:04:47;;;;;;;11.23;10.05;;;;;;;;;;5093796;28;20020;-61
2021/04/14 00:07:14;;;;;;;12.73;9.15;;;;;;;;;;5093886;28;20027;-61
2021/04/14 00:09:39;;;;;;;10.55;9.20;;;;;;;;;;5092548;28;20031;-61
2021/04/14 00:12:05;;;;;;;12.13;9.15;;;;;;;;;;5093648;28;20024;-61
2021/04/14 00:14:31;;;;;;;10.50;9.10;;;;;;;;;;5093700;28;20032;-61
2021/04/14 00:16:57;;;;;;;10.13;9.13;;;;;;;;;;5093429;28;20036;-61
2021/04/14 00:19:23;;;;;;;10.70;9.52;;;;;;;;;;5093733;28;20467;-61
2021/04/14 00:21:49;;;;;;;12.18;10.13;;;;;;;;;;5093455;28;20389;-61
2021/04/14 00:24:16;;;;;;;10.15;9.07;;;;;;;;;;5093455;28;20020;-62
2021/04/14 00:26:41;;;;;;;11.48;9.38;;;;;;;;;;5110691;28;20458;-61
2021/04/14 00:29:07;;;;;;;11.43;9.82;;;;;;;;;;5097638;28;20036;-61
2021/04/14 00:31:35;;;;;;;10.75;9.65;;;;;;;;;;5097204;28;20024;-65
2021/04/14 00:34:02;;;;;;;10.35;9.27;;;;;;;;;;5097453;28;20416;-65
2021/04/14 00:36:28;;;;;;;12.00;10.23;;;;;;;;;;5097118;28;20020;-64
2021/04/14 00:38:53;;;;;;;11.82;10.45;;;;;;;;;;5097532;28;20101;-65
2021/04/14 00:41:19;;;;;;;11.80;10.23;;;;;;;;;;5097379;28;20389;-65
2021/04/14 00:43:44;;;;;;;11.88;10.02;;;;;;;;;;5097351;28;20031;-64
2021/04/14 00:46:09;;;;;;;10.77;9.68;;;;;;;;;;5097424;28;20366;-61
2021/04/14 00:48:35;;;;;;;10.90;9.40;;;;;;;;;;5097303;28;20084;-61
2021/04/14 00:51:01;;;;;;;11.70;9.18;;;;;;;;;;5104190;28;20012;-64
2021/04/14 00:53:28;;;;;;;10.35;8.93;;;;;;;;;;5116087;28;20024;-64
2021/04/14 00:55:54;;;;;;;9.50;8.13;;;;;;;;;;5098892;28;20026;-65
2021/04/14 00:58:19;;;;;;;9.00;8.10;;;;;;;;;;5116807;28;20032;-65
2021/04/14 01:00:49;;;;;;;9.45;8.40;;;;;;;;;;5117243;28;20024;-65
2021/04/14 01:03:16;;;;;;;10.68;8.27;;;;;;;;;;5117301;28;20373;-65
2021/04/14 01:05:42;;;;;;;8.80;7.95;;;;;;;;;;5117194;28;20016;-65
2021/04/14 01:08:08;;;;;;;9.18;8.25;;;;;;;;;;5117249;28;20038;-65
2021/04/14 01:10:33;;;;;;;10.98;8.27;;;;;;;;;;5098861;28;20015;-65
2021/04/14 01:13:00;;;;;;;9.30;8.02;;;;;;;;;;5117084;28;20089;-65
2021/04/14 01:15:30;;;;;;;10.05;8.25;;;;;;;;;;5116843;28;20024;-64
2021/04/14 01:17:56;;;;;;;8.82;7.93;;;;;;;;;;5098472;28;20027;-61
2021/04/14 01:20:23;;;;;;;9.20;8.27;;;;;;;;;;5116917;28;20427;-65
2021/04/14 01:22:48;;;;;;;9.80;8.30;;;;;;;;;;5116805;28;20473;-65
2021/04/14 01:25:18;;;;;;;9.70;7.82;;;;;;;;;;5116705;28;20099;-65
2021/04/14 01:27:43;;;;;;;8.90;8.00;;;;;;;;;;5116929;28;20026;-65
2021/04/14 01:30:11;;;;;;;8.27;7.47;;;;;;;;;;5116628;28;20446;-65
2021/04/14 01:32:37;;;;;;;7.32;6.45;;;;;;;;;;5116539;28;20039;-65
2021/04/14 01:35:02;;;;;;;7.65;6.95;;;;;;;;;;5116627;28;20107;-65
2021/04/14 01:37:28;;;;;;;7.03;6.32;;;;;;;;;;5115650;28;20126;-65
2021/04/14 01:39:53;;;;;;;6.57;5.93;;;;;;;;;;5115731;28;20023;-65
2021/04/14 01:42:19;;;;;;;6.68;5.53;;;;;;;;;;5116639;28;20038;-65
2021/04/14 01:44:44;;;;;;;4.25;3.90;;;;;;;;;;5116562;28;20433;-65
2021/04/14 01:47:10;;;;;;;5.25;4.40;;;;;;;;;;5098151;28;20057;-65
2021/04/14 01:49:35;;;;;;;5.45;4.95;;;;;;;;;;5116390;28;20116;-65
2021/04/14 01:52:01;;;;;;;4.28;3.90;;;;;;;;;;5115932;28;20026;-61
2021/04/14 01:54:27;;;;;;;3.80;3.50;;;;;;;;;;5097775;28;20476;-61
2021/04/14 01:56:52;;;;;;;3.90;3.60;;;;;;;;;;5115927;28;20027;-61
2021/04/14 01:59:18;;;;;;;4.30;4.00;;;;;;;;;;5115564;27;20568;-61
2021/04/14 02:01:44;;;;;;;4.25;3.90;;;;;;;;;;5115704;28;20380;-60
2021/04/14 02:04:09;;;;;;;3.83;3.20;;;;;;;;;;5115907;28;20019;-61
2021/04/14 02:06:34;;;;;;;3.10;2.83;;;;;;;;;;5115821;28;20093;-61
2021/04/14 02:09:00;;;;;;;3.03;2.83;;;;;;;;;;5115994;28;20098;-61
2021/04/14 02:11:26;;;;;;;3.10;2.75;;;;;;;;;;5116186;28;20055;-61
2021/04/14 02:13:52;;;;;;;2.63;2.42;;;;;;;;;;5116246;28;20441;-61
2021/04/14 02:16:20;;;;;;;2.53;2.40;;;;;;;;;;5115962;28;20479;-61
2021/04/14 02:18:46;;;;;;;2.83;2.63;;;;;;;;;;5115863;28;20054;-62
2021/04/14 02:21:12;;;;;;;2.42;2.30;;;;;;;;;;5116004;28;20051;-61
2021/04/14 02:23:40;;;;;;;2.53;2.33;;;;;;;;;;5114877;28;20023;-61
2021/04/14 02:26:08;;;;;;;2.60;2.50;;;;;;;;;;5116040;28;20130;-61
2021/04/14 02:28:33;;;;;;;2.22;2.03;;;;;;;;;;5115983;28;20023;-61
2021/04/14 02:30:59;;;;;;;2.05;1.95;;;;;;;;;;5116064;28;20027;-61
2021/04/14 02:33:25;;;;;;;2.03;1.92;;;;;;;;;;5116032;28;20015;-61
2021/04/14 02:35:52;;;;;;;2.28;2.08;;;;;;;;;;5115662;28;20072;-60
2021/04/14 02:38:19;;;;;;;2.00;1.90;;;;;;;;;;5115811;28;20016;-61
2021/04/14 02:40:44;;;;;;;2.30;2.10;;;;;;;;;;5113981;28;20388;-61
2021/04/14 02:43:10;;;;;;;2.30;2.20;;;;;;;;;;5115729;27;20027;-61
2021/04/14 02:45:37;;;;;;;1.90;1.80;;;;;;;;;;5115771;28;20388;-61
2021/04/14 02:48:03;;;;;;;1.83;1.73;;;;;;;;;;5115435;27;20098;-61
2021/04/14 02:50:30;;;;;;;2.00;1.90;;;;;;;;;;5115022;28;20031;-61
2021/04/14 02:52:57;;;;;;;1.92;1.83;;;;;;;;;;5115376;28;20027;-61
2021/04/14 02:55:24;;;;;;;1.88;1.77;;;;;;;;;;5115553;28;20461;-61
2021/04/14 02:57:49;;;;;;;1.85;1.75;;;;;;;;;;5115006;28;20019;-64
2021/04/14 03:00:15;;;;;;;2.08;1.98;;;;;;;;;;5115361;28;20427;-64
2021/04/14 03:02:41;;;;;;;2.10;2.00;;;;;;;;;;5114999;28;20030;-63
2021/04/14 03:05:07;;;;;;;1.83;1.73;;;;;;;;;;5115027;28;20095;-63
2021/04/14 03:07:33;;;;;;;2.13;2.03;;;;;;;;;;5113682;28;20069;-63
2021/04/14 03:09:59;;;;;;;1.90;1.80;;;;;;;;;;5114983;28;20027;-64
2021/04/14 03:12:25;;;;;;;1.98;1.88;;;;;;;;;;5114850;28;20026;-64
2021/04/14 03:14:50;;;;;;;1.85;1.75;;;;;;;;;;5114811;28;20027;-64
2021/04/14 03:17:16;;;;;;;1.70;1.60;;;;;;;;;;5114839;28;20023;-64
2021/04/14 03:19:41;;;;;;;2.17;1.98;;;;;;;;;;5114806;28;20039;-65
2021/04/14 03:22:07;;;;;;;2.20;2.10;;;;;;;;;;5114803;28;20030;-64
2021/04/14 03:24:33;;;;;;;2.17;2.08;;;;;;;;;;5114713;28;20481;-65
2021/04/14 03:26:58;;;;;;;2.35;2.25;;;;;;;;;;5114735;28;20169;-61
2021/04/14 03:29:24;;;;;;;2.30;2.20;;;;;;;;;;5114726;28;20053;-61
2021/04/14 03:31:49;;;;;;;2.30;2.17;;;;;;;;;;5114444;28;20085;-61
2021/04/14 03:34:15;;;;;;;2.40;2.30;;;;;;;;;;5114358;28;20030;-60
2021/04/14 03:36:41;;;;;;;2.55;2.35;;;;;;;;;;5114735;28;20100;-60
2021/04/14 03:39:07;;;;;;;2.20;2.10;;;;;;;;;;5114472;28;20035;-60
2021/04/14 03:41:33;;;;;;;1.98;1.88;;;;;;;;;;5114394;28;20015;-61
2021/04/14 03:43:59;;;;;;;2.13;2.03;;;;;;;;;;5114280;28;20024;-61
2021/04/14 03:46:26;;;;;;;1.88;1.77;;;;;;;;;;5114239;28;20400;-61
2021/04/14 03:48:52;;;;;;;1.80;1.70;;;;;;;;;;5114383;28;20437;-61
2021/04/14 03:51:18;;;;;;;2.00;1.80;;;;;;;;;;5114285;28;20051;-61
2021/04/14 03:53:44;;;;;;;1.73;1.63;;;;;;;;;;5114457;28;20031;-61
2021/04/14 03:56:11;;;;;;;1.70;1.60;;;;;;;;;;5114065;28;20025;-60
2021/04/14 03:58:37;;;;;;;1.77;1.67;;;;;;;;;;5112447;28;20373;-61
2021/04/14 04:01:04;;;;;;;1.70;1.60;;;;;;;;;;5113546;28;20027;-61
2021/04/14 04:03:30;;;;;;;1.77;1.65;;;;;;;;;;5114104;28;20024;-60
2021/04/14 04:05:57;;;;;;;1.60;1.50;;;;;;;;;;5129847;27;20034;-60
2021/04/14 04:08:23;;;;;;;1.58;1.48;;;;;;;;;;5129982;27;20467;-61
2021/04/14 04:10:48;;;;;;;2.15;2.05;;;;;;;;;;5114054;28;20058;-61
2021/04/14 04:13:15;;;;;;;1.75;1.48;;;;;;;;;;5113976;28;20047;-61
2021/04/14 04:15:40;;;;;;;1.70;1.60;;;;;;;;;;5113990;28;20020;-62
2021/04/14 04:18:06;;;;;;;1.80;1.70;;;;;;;;;;5097009;28;20073;-62
2021/04/14 04:20:32;;;;;;;2.03;1.92;;;;;;;;;;5113704;28;20015;-61
2021/04/14 04:22:59;;;;;;;1.98;1.88;;;;;;;;;;5112503;28;20024;-61
2021/04/14 04:25:25;;;;;;;27.55;19.95;;;;;;;;;;5113634;28;20011;-61
2021/04/14 04:27:50;;;;;;;10.88;8.68;;;;;;;;;;5113873;28;20023;-61
2021/04/14 04:30:16;;;;;;;3.70;3.45;;;;;;;;;;5105108;28;20111;-62
2021/04/14 04:32:41;;;;;;;2.80;2.60;;;;;;;;;;5104016;28;20020;-63
2021/04/14 04:35:08;;;;;;;2.42;2.33;;;;;;;;;;5085811;28;20062;-64
2021/04/14 04:37:33;;;;;;;2.40;2.20;;;;;;;;;;5110153;28;20072;-64
2021/04/14 04:39:59;;;;;;;4.90;4.60;;;;;;;;;;5111296;28;20015;-61
2021/04/14 04:42:25;;;;;;;3.03;2.80;;;;;;;;;;5113552;28;20407;-61
2021/04/14 04:44:50;;;;;;;4.35;4.05;;;;;;;;;;5095529;28;20130;-61
2021/04/14 04:58:05;;;;;;;4.13;3.83;;;;;;;;;;5140216;27;898793;-68
2021/04/14 05:00:31;;;;;;;2.65;2.55;;;;;;;;;;5172555;27;20025;-68
2021/04/14 05:02:57;;;;;;;4.13;3.83;;;;;;;;;;5172898;27;20015;-68
2021/04/14 05:05:27;;;;;;;6.75;6.15;;;;;;;;;;5172745;27;20038;-67
2021/04/14 05:07:52;;;;;;;5.10;4.63;;;;;;;;;;5154377;27;20022;-68
2021/04/14 05:10:19;;;;;;;4.65;4.25;;;;;;;;;;5172899;27;20063;-68
2021/04/14 05:12:47;;;;;;;2.40;2.20;;;;;;;;;;5172770;27;20019;-67
2021/04/14 05:15:13;;;;;;;22.85;20.50;;;;;;;;;;5172953;27;20015;-68
2021/04/14 05:17:39;;;;;;;18.58;16.80;;;;;;;;;;5154351;27;20422;-69
2021/04/14 05:20:04;;;;;;;8.80;7.78;;;;;;;;;;5154250;27;20022;-68
2021/04/14 05:22:31;;;;;;;6.60;6.10;;;;;;;;;;5172810;27;20030;-69
2021/04/14 05:24:56;;;;;;;9.50;8.73;;;;;;;;;;5172850;27;20049;-70
2021/04/14 05:27:22;;;;;;;9.80;9.00;;;;;;;;;;5172617;27;20068;-70
2021/04/14 05:29:48;;;;;;;20.15;18.15;;;;;;;;;;5172525;27;20071;-70
2021/04/14 05:32:13;;;;;;;11.63;10.35;;;;;;;;;;5153855;27;20033;-69
2021/04/14 05:34:39;;;;;;;20.63;18.33;;;;;;;;;;5172490;27;20454;-70
2021/04/14 05:37:04;;;;;;;19.02;14.27;;;;;;;;;;5172690;27;20129;-68
2021/04/14 05:39:30;;;;;;;32.40;28.98;;;;;;;;;;5172002;27;20026;-69
2021/04/14 05:41:56;;;;;;;19.23;17.20;;;;;;;;;;5170453;27;20026;-61
2021/04/14 05:44:22;;;;;;;13.43;8.95;;;;;;;;;;5170457;27;20010;-62
2021/04/14 05:46:48;;;;;;;12.55;8.13;;;;;;;;;;5151408;27;20488;-62
2021/04/14 05:49:13;;;;;;;10.02;4.88;;;;;;;;;;5151816;27;20042;-72
2021/04/14 05:51:39;;;;;;;17.05;7.82;;;;;;;;;;5170178;27;20480;-61
2021/04/14 05:54:04;;;;;;;13.82;6.15;;;;;;;;;;5170441;27;20522;-61
2021/04/14 05:56:33;;;;;;;20.83;13.10;;;;;;;;;;5170954;27;20503;-61
2021/04/14 05:58:58;;;;;;;15.43;6.22;;;;;;;;;;5158354;27;20109;-61
2021/04/14 06:01:25;;;;;;;11.38;5.20;;;;;;;;;;5139458;27;20058;-61
2021/04/14 06:03:51;;;;;;;17.98;7.47;;;;;;;;;;5138976;27;20369;-61
2021/04/14 06:06:17;;;;;;;11.80;5.20;;;;;;;;;;5157667;27;20034;-61
2021/04/14 06:08:42;;;;;;;3.83;3.22;;;;;;;;;;5157626;27;20349;-61
2021/04/14 06:11:08;;;;;;;2.85;2.60;;;;;;;;;;5139286;27;20079;-61
2021/04/14 06:13:34;;;;;;;2.80;2.60;;;;;;;;;;5139130;27;20094;-61
2021/04/14 06:16:00;;;;;;;3.13;2.83;;;;;;;;;;5121833;27;20047;-61
2021/04/14 06:18:26;;;;;;;3.80;2.70;;;;;;;;;;5157669;27;20022;-60
2021/04/14 06:20:52;;;;;;;5.53;3.65;;;;;;;;;;5139136;27;20034;-61
2021/04/14 06:23:19;;;;;;;5.50;3.58;;;;;;;;;;5157308;27;20357;-61
2021/04/14 06:28:40;;;;;;;5.78;4.20;;;;;;;;;;5115095;27;20026;-61
2021/04/14 06:31:07;;;;;;;9.10;6.68;;;;;;;;;;5157594;27;20513;-61
2021/04/14 06:33:35;;;;;;;8.23;4.38;;;;;;;;;;5157359;27;20101;-61
2021/04/14 06:36:01;;;;;;;5.18;3.28;;;;;;;;;;5157316;27;20021;-61
2021/04/14 06:38:32;;;;;;;5.80;4.25;;;;;;;;;;5157410;27;20109;-61
2021/04/14 06:41:33;;;;;;;3.40;3.00;;;;;;;;;;5156932;27;20029;-60
2021/04/14 06:43:52;;;;;;;7.47;3.67;;;;;;;;;;5156119;27;20155;-61
2021/04/14 06:46:20;;;;;;;6.82;4.78;;;;;;;;;;5157269;27;20097;-60
2021/04/14 06:48:46;;;;;;;4.97;3.88;;;;;;;;;;5157041;27;20027;-61
2021/04/14 06:51:19;;;;;;;3.88;2.80;;;;;;;;;;5138350;27;20078;-60
2021/04/14 06:53:51;;;;;;;7.05;4.38;;;;;;;;;;5156968;27;20057;-61
2021/04/14 06:56:18;;;;;;;17.85;10.05;;;;;;;;;;5137863;27;20497;-60
2021/04/14 06:58:55;;;;;;;2.97;2.10;;;;;;;;;;5157088;27;20031;-61
2021/04/14 07:01:26;;;;;;;9.05;5.05;;;;;;;;;;5157104;27;20403;-61
2021/04/14 07:03:55;;;;;;;11.02;5.57;;;;;;;;;;5156779;27;20033;-62
2021/04/14 07:06:22;;;;;;;3.97;2.50;;;;;;;;;;5156003;27;20063;-61
2021/04/14 07:09:17;;;;;;;6.55;3.10;;;;;;;;;;5156118;27;20023;-60
2021/04/14 07:11:43;;;;;;;4.03;1.50;;;;;;;;;;5124766;27;20078;-61
2021/04/14 07:14:10;;;;;;;6.55;3.95;;;;;;;;;;5156561;27;20047;-60
2021/04/14 07:16:37;;;;;;;23.55;10.93;;;;;;;;;;5156590;27;20031;-60
2021/04/14 07:19:23;;;;;;;18.15;7.40;;;;;;;;;;5156127;27;20376;-61
2021/04/14 07:21:52;;;;;;;14.07;6.80;;;;;;;;;;5138068;27;20033;-60
2021/04/14 07:24:27;;;;;;;19.90;8.40;;;;;;;;;;5137374;27;20497;-61
2021/04/14 07:26:53;;;;;;;3.95;3.03;;;;;;;;;;5137568;27;20430;-60
2021/04/14 07:29:24;;;;;;;6.55;4.25;;;;;;;;;;5156384;27;20090;-61
2021/04/14 07:32:08;;;;;;;12.38;7.30;;;;;;;;;;5156305;27;20046;-61
2021/04/14 07:34:41;;;;;;;10.52;6.80;;;;;;;;;;5156350;27;20491;-61
2021/04/14 07:37:06;;;;;;;12.05;6.63;;;;;;;;;;5155982;27;20041;-61
2021/04/14 07:39:37;;;;;;;12.25;8.10;;;;;;;;;;5156347;27;20457;-61
2021/04/14 07:42:03;;;;;;;;;;;;;;;;;;5156413;27;20031;-61
2021/04/14 07:44:34;;;;;;;3.65;3.30;;;;;;;;;;5137558;27;19909;-61
2021/04/14 07:47:01;;;;;;;5.13;3.20;;;;;;;;;;5155968;27;20365;-61
2021/04/14 07:49:31;;;;;;;7.88;6.00;;;;;;;;;;5155914;27;20021;-61
2021/04/14 07:51:58;;;;;;;9.05;6.57;;;;;;;;;;5136925;27;20050;-61
2021/04/14 07:54:25;;;;;;;30.05;17.80;;;;;;;;;;5155770;27;20473;-61
2021/04/14 07:56:56;;;;;;;9.85;7.13;;;;;;;;;;5154548;27;20053;-61
2021/04/14 07:59:41;;;;;;;11.02;8.30;;;;;;;;;;5155864;27;20462;-61
2021/04/14 08:02:08;;;;;;;3.85;2.92;;;;;;;;;;5155723;27;20042;-61
2021/04/14 08:04:37;;;;;;;9.52;4.28;;;;;;;;;;5155674;27;20023;-61
2021/04/14 08:07:07;;;;;;;4.82;3.15;;;;;;;;;;5155393;27;20538;-61
2021/04/14 08:09:33;;;;;;;4.65;3.75;;;;;;;;;;5155344;27;20030;-61
2021/04/14 08:12:04;;;;;;;3.80;2.90;;;;;;;;;;5155637;27;20014;-61
2021/04/14 08:14:41;;;;;;;5.47;3.60;;;;;;;;;;5137083;27;20025;-61
2021/04/14 08:17:13;;;;;;;3.22;2.92;;;;;;;;;;5155417;27;20026;-61
2021/04/14 08:19:38;;;;;;;3.38;3.00;;;;;;;;;;5155446;27;20180;-61
2021/04/14 08:22:19;;;;;;;3.38;2.60;;;;;;;;;;5154709;27;20110;-60
2021/04/14 08:24:49;;;;;;;3.75;3.35;;;;;;;;;;5155284;27;20030;-69
2021/04/14 08:27:21;;;;;;;11.93;8.05;;;;;;;;;;5155201;27;20027;-69
2021/04/14 08:30:02;;;;;;;9.20;5.47;;;;;;;;;;5136771;27;20022;-69
2021/04/14 08:32:28;;;;;;;263.17;93.70;;;;;;;;;;5155292;27;20473;-69
2021/04/14 08:34:55;;;;;;;507.48;239.57;;;;;;;;;;5155183;27;20017;-70
2021/04/14 08:37:22;;;;;;;95.10;46.67;;;;;;;;;;5151716;27;20441;-70
2021/04/14 08:39:53;;;;;;;643.05;359.63;;;;;;;;;;5155113;27;20022;-68
2021/04/14 08:42:22;;;;;;;49.03;28.70;;;;;;;;;;5119743;27;20118;-68
2021/04/14 08:45:18;;;;;;;186.75;96.13;;;;;;;;;;5154881;27;20041;-69
2021/04/14 08:47:50;;;;;;;325.33;117.35;;;;;;;;;;5133410;27;20042;-69
2021/04/14 08:50:23;;;;;;;153.60;65.22;;;;;;;;;;5154887;27;20054;-69
2021/04/14 08:52:50;;;;;;;72.32;33.78;;;;;;;;;;5154772;27;20588;-69
2021/04/14 08:55:16;;;;;;;293.45;104.70;;;;;;;;;;5154978;27;20384;-68
2021/04/14 08:57:42;;;;;;;79.95;32.88;;;;;;;;;;5154901;27;20050;-70
2021/04/14 09:00:08;;;;;;;43.10;17.95;;;;;;;;;;5154874;27;20030;-70
2021/04/14 09:02:40;;;;;;;1403.63;614.92;;;;;;;;;;5154968;27;20039;-70
2021/04/14 09:05:07;;;;;;;825.63;393.77;;;;;;;;;;5136562;27;20385;-70
2021/04/14 09:07:34;;;;;;;986.42;450.60;;;;;;;;;;5154755;27;20027;-70
2021/04/14 09:10:05;;;;;;;558.15;242.13;;;;;;;;;;5154868;27;20450;-70
2021/04/14 09:12:34;;;;;;;49.50;22.17;;;;;;;;;;5155062;27;20049;-70
2021/04/14 09:15:01;;;;;;;466.57;185.43;;;;;;;;;;5154807;27;20027;-70
2021/04/14 09:17:28;;;;;;;710.20;395.00;;;;;;;;;;5154562;27;20023;-69
2021/04/14 09:20:05;;;;;;;1161.03;559.60;;;;;;;;;;5154724;27;20027;-70
2021/04/14 09:22:32;;;;;;;448.88;215.35;;;;;;;;;;5154812;27;20022;-69
2021/04/14 09:25:03;;;;;;;624.92;311.10;;;;;;;;;;5154832;27;20444;-69
2021/04/14 09:27:39;;;;;;;560.13;294.45;;;;;;;;;;5136018;27;20046;-70
2021/04/14 09:30:16;;;;;;;314.10;139.32;;;;;;;;;;5154893;27;20019;-70
2021/04/14 09:32:59;;;;;;;379.63;239.68;;;;;;;;;;5155053;27;20023;-70
2021/04/14 09:35:28;;;;;;;159.30;85.20;;;;;;;;;;5158526;27;20033;-69
2021/04/14 09:38:21;;;;;;;274.60;163.27;;;;;;;;;;5140029;27;20011;-68
2021/04/14 09:40:47;;;;;;;143.85;58.47;;;;;;;;;;5158334;27;20082;-69
2021/04/14 09:43:27;;;;;;;752.38;228.52;;;;;;;;;;5158244;27;20423;-69
2021/04/14 09:45:54;;;;;;;1997.28;691.17;;;;;;;;;;5158478;27;20031;-70
2021/04/14 09:48:20;;;;;;;1999.90;761.80;;;;;;;;;;5139829;27;20026;-69
2021/04/14 09:50:46;;;;;;;482.75;202.15;;;;;;;;;;5158249;27;20117;-69
2021/04/14 09:53:14;;;;;;;1497.35;578.25;;;;;;;;;;5158048;27;20018;-70
2021/04/14 09:55:43;;;;;;;128.13;43.78;;;;;;;;;;5158159;27;20018;-69
2021/04/14 09:58:13;;;;;;;277.45;98.75;;;;;;;;;;5157803;27;20038;-69
2021/04/14 10:00:40;;;;;;;55.70;23.80;;;;;;;;;;5157973;27;20476;-69
2021/04/14 10:03:11;;;;;;;25.75;12.32;;;;;;;;;;5157918;27;20082;-69
2021/04/14 10:05:38;;;;;;;42.90;17.70;;;;;;;;;;5158009;27;20074;-69
2021/04/14 10:08:05;;;;;;;349.10;112.35;;;;;;;;;;5158098;27;20098;-69
2021/04/14 10:10:39;;;;;;;228.80;88.70;;;;;;;;;;5139352;27;20019;-69
2021/04/14 10:13:08;;;;;;;541.92;301.85;;;;;;;;;;5157749;27;20019;-69
2021/04/14 10:15:38;;;;;;;65.90;38.58;;;;;;;;;;5157798;27;20018;-69
2021/04/14 10:18:04;;;;;;;24.95;18.88;;;;;;;;;;5157657;27;20018;-70
2021/04/14 10:20:33;;;;;;;124.30;88.13;;;;;;;;;;5139377;27;20030;-69
2021/04/14 10:22:58;;;;;;;10.38;9.07;;;;;;;;;;5139102;27;20019;-69
2021/04/14 10:25:29;;;;;;;22.23;16.05;;;;;;;;;;5157450;27;20384;-68
2021/04/14 10:28:22;;;;;;;27.80;22.23;;;;;;;;;;5157737;27;20026;-69
2021/04/14 10:30:59;;;;;;;10.45;8.32;;;;;;;;;;5154538;27;20039;-70
2021/04/14 10:33:26;;;;;;;14.10;8.35;;;;;;;;;;5157460;27;20029;-69
2021/04/14 10:35:53;;;;;;;14.68;10.57;;;;;;;;;;5138569;27;20022;-69
2021/04/14 10:38:33;;;;;;;11.55;9.02;;;;;;;;;;5138810;27;20034;-69
2021/04/14 10:40:59;;;;;;;14.88;11.52;;;;;;;;;;5157462;27;20058;-69
2021/04/14 10:43:25;;;;;;;9.20;8.35;;;;;;;;;;5157124;27;20496;-70
2021/04/14 10:46:07;;;;;;;8.15;7.15;;;;;;;;;;5138532;27;20022;-70
2021/04/14 10:48:35;;;;;;;9.13;7.25;;;;;;;;;;5157037;27;20423;-69
2021/04/14 10:51:10;;;;;;;11.98;7.20;;;;;;;;;;5157024;27;20023;-69
2021/04/14 10:53:37;;;;;;;17.70;14.35;;;;;;;;;;5157118;27;20493;-69
2021/04/14 10:56:02;;;;;;;25.30;19.17;;;;;;;;;;5156334;27;20011;-69
2021/04/14 10:58:29;;;;;;;23.15;14.88;;;;;;;;;;5156836;27;20113;-69
2021/04/14 11:00:54;;;;;;;324.85;148.05;;;;;;;;;;5138336;27;20037;-69
2021/04/14 11:03:22;;;;;;;250.45;105.68;;;;;;;;;;5156652;27;20027;-69
2021/04/14 11:05:49;;;;;;;206.38;86.63;;;;;;;;;;5156720;27;20055;-69
2021/04/14 11:08:16;;;;;;;49.50;20.77;;;;;;;;;;5156950;27;20022;-70
2021/04/14 11:10:41;;;;;;;157.70;59.00;;;;;;;;;;5156647;27;20063;-69
2021/04/14 11:13:13;;;;;;;57.97;29.63;;;;;;;;;;5156654;27;20105;-69
2021/04/14 11:15:40;;;;;;;221.43;97.15;;;;;;;;;;5137743;27;20106;-68
2021/04/14 11:18:07;;;;;;;98.25;36.53;;;;;;;;;;5156382;27;20164;-68
2021/04/14 11:20:44;;;;;;;380.27;159.40;;;;;;;;;;5156173;27;20051;-68
2021/04/14 11:23:19;;;;;;;605.78;287.25;;;;;;;;;;5156785;27;20030;-68
2021/04/14 11:25:46;;;;;;;153.38;63.80;;;;;;;;;;5137889;27;20066;-68
2021/04/14 11:28:13;;;;;;;75.18;34.47;;;;;;;;;;5156442;27;20095;-68
2021/04/14 11:30:48;;;;;;;185.15;78.65;;;;;;;;;;5137368;27;20075;-68
2021/04/14 11:33:14;;;;;;;271.40;111.60;;;;;;;;;;5137144;27;20041;-69
2021/04/14 11:35:58;;;;;;;113.07;55.25;;;;;;;;;;5137665;27;20011;-68
2021/04/14 11:38:28;;;;;;;310.73;141.88;;;;;;;;;;5137665;27;20118;-68
2021/04/14 11:40:54;;;;;;;515.80;241.20;;;;;;;;;;5156110;27;20023;-68
2021/04/14 11:43:24;;;;;;;1004.92;531.58;;;;;;;;;;5156185;27;20023;-69
2021/04/14 11:45:57;;;;;;;30.40;16.98;;;;;;;;;;5155926;27;20450;-68
2021/04/14 11:48:49;;;;;;;155.35;74.43;;;;;;;;;;5155996;27;20034;-68
2021/04/14 11:51:20;;;;;;;407.20;231.93;;;;;;;;;;5150965;27;20031;-69
2021/04/14 11:53:50;;;;;;;473.13;274.30;;;;;;;;;;5155943;27;20359;-68
2021/04/14 11:56:24;;;;;;;199.68;116.55;;;;;;;;;;5155060;27;20473;-68
2021/04/14 11:58:50;;;;;;;427.33;288.05;;;;;;;;;;5155933;27;20026;-69
2021/04/14 12:01:22;;;;;;;81.35;49.30;;;;;;;;;;5155583;27;20095;-69
2021/04/14 12:03:47;;;;;;;114.07;74.45;;;;;;;;;;5155854;27;20027;-68
2021/04/14 12:06:13;;;;;;;99.97;68.20;;;;;;;;;;5136942;27;20125;-69
2021/04/14 12:08:40;;;;;;;257.50;174.23;;;;;;;;;;5155185;27;20027;-67
2021/04/14 12:11:14;;;;;;;81.07;60.97;;;;;;;;;;5155046;27;20026;-69
2021/04/14 12:13:40;;;;;;;34.13;23.60;;;;;;;;;;5155635;27;20057;-68
2021/04/14 12:16:05;;;;;;;76.57;57.33;;;;;;;;;;5155031;27;20508;-68
2021/04/14 12:18:31;;;;;;;50.33;33.08;;;;;;;;;;5155437;27;20038;-68
2021/04/14 12:20:56;;;;;;;10.98;7.43;;;;;;;;;;5137193;27;20019;-69
2021/04/14 12:23:22;;;;;;;5.85;4.70;;;;;;;;;;5155465;27;20034;-69
2021/04/14 12:25:47;;;;;;;20.15;18.35;;;;;;;;;;5155310;27;20019;-69
2021/04/14 12:28:13;;;;;;;16.95;13.38;;;;;;;;;;5155402;27;20019;-70
2021/04/14 12:30:38;;;;;;;4.50;3.70;;;;;;;;;;5155123;27;20015;-68
2021/04/14 12:33:04;;;;;;;7.55;3.72;;;;;;;;;;5155273;27;20022;-70
2021/04/14 12:35:29;;;;;;;6.82;3.67;;;;;;;;;;5155388;27;20018;-70
2021/04/14 12:37:55;;;;;;;9.70;6.28;;;;;;;;;;5155258;27;20026;-69
2021/04/14 12:40:21;;;;;;;6.28;4.50;;;;;;;;;;5155036;27;20097;-69
2021/04/14 12:42:48;;;;;;;11.07;5.75;;;;;;;;;;5136529;27;20446;-69
2021/04/14 12:45:33;;;;;;;23.83;15.60;;;;;;;;;;5155367;27;20094;-69
2021/04/14 12:47:58;;;;;;;23.83;15.57;;;;;;;;;;5155459;27;20410;-69
2021/04/14 12:50:24;;;;;;;24.70;16.30;;;;;;;;;;5154734;27;20010;-68
2021/04/14 12:52:51;;;;;;;10.75;9.07;;;;;;;;;;5155340;27;20102;-68
2021/04/14 12:55:20;;;;;;;20.30;15.32;;;;;;;;;;5155095;27;20029;-68
2021/04/14 12:57:46;;;;;;;5.93;5.35;;;;;;;;;;5154704;27;20071;-69
2021/04/14 13:00:41;;;;;;;9.02;6.40;;;;;;;;;;5148282;27;20053;-69
2021/04/14 13:03:38;;;;;;;13.75;11.93;;;;;;;;;;5149382;27;20019;-69
2021/04/14 13:06:07;;;;;;;7.90;5.63;;;;;;;;;;5080759;27;20037;-70
2021/04/14 13:08:40;;;;;;;14.52;8.75;;;;;;;;;;5138627;27;20019;-69
2021/04/14 13:11:32;;;;;;;8.60;5.63;;;;;;;;;;5159321;27;20034;-69
2021/04/14 13:14:03;;;;;;;4.07;3.40;;;;;;;;;;5159104;27;20067;-69
2021/04/14 13:16:29;;;;;;;12.52;7.80;;;;;;;;;;5159130;27;20066;-70
2021/04/14 13:19:00;;;;;;;20.48;7.78;;;;;;;;;;5158469;27;20019;-70
2021/04/14 13:21:30;;;;;;;24.02;9.60;;;;;;;;;;5140270;27;20079;-70
2021/04/14 13:24:05;;;;;;;12.93;7.37;;;;;;;;;;5159036;27;20114;-70
2021/04/14 13:26:34;;;;;;;15.25;8.48;;;;;;;;;;5158996;27;20392;-70
2021/04/14 13:29:06;;;;;;;10.32;6.80;;;;;;;;;;5139635;27;20021;-69
2021/04/14 13:31:35;;;;;;;13.02;7.65;;;;;;;;;;5157897;27;20076;-68
2021/04/14 13:34:06;;;;;;;16.70;8.93;;;;;;;;;;5158039;27;20106;-69
2021/04/14 13:36:34;;;;;;;6.25;5.65;;;;;;;;;;5158470;27;20118;-69
2021/04/14 13:39:21;;;;;;;11.68;7.35;;;;;;;;;;5158420;27;20070;-70
2021/04/14 13:41:55;;;;;;;20.05;13.73;;;;;;;;;;5158939;27;20031;-69
2021/04/14 13:44:36;;;;;;;13.85;10.20;;;;;;;;;;5159022;27;20030;-68
2021/04/14 13:47:08;;;;;;;12.15;7.60;;;;;;;;;;5158179;27;20493;-69
2021/04/14 13:49:39;;;;;;;11.85;7.05;;;;;;;;;;5139707;27;20075;-70
2021/04/14 13:52:07;;;;;;;7.15;5.90;;;;;;;;;;5158269;27;20026;-69
2021/04/14 13:54:33;;;;;;;5.38;4.63;;;;;;;;;;5158167;27;20022;-69
2021/04/14 13:56:59;;;;;;;14.07;6.60;;;;;;;;;;5157374;27;20230;-69
2021/04/14 13:59:37;;;;;;;7.40;4.88;;;;;;;;;;5157917;27;20038;-69
2021/04/14 14:02:14;;;;;;;10.57;5.80;;;;;;;;;;5158216;27;20030;-69
2021/04/14 14:04:40;;;;;;;11.43;7.45;;;;;;;;;;5158334;27;20046;-69
2021/04/14 14:07:07;;;;;;;26.73;18.77;;;;;;;;;;5158220;27;20103;-69
2021/04/14 14:09:35;;;;;;;14.20;8.20;;;;;;;;;;5158397;27;20026;-70
2021/04/14 14:12:08;;;;;;;10.85;6.82;;;;;;;;;;5139316;27;20434;-70
2021/04/14 14:14:34;;;;;;;23.52;17.23;;;;;;;;;;5158109;27;20110;-69
2021/04/14 14:17:01;;;;;;;15.55;13.77;;;;;;;;;;5157683;27;20448;-69
2021/04/14 14:19:30;;;;;;;15.68;10.93;;;;;;;;;;5157118;27;20071;-69
2021/04/14 14:21:56;;;;;;;15.27;13.25;;;;;;;;;;5158128;27;20019;-68
2021/04/14 14:24:22;;;;;;;17.17;15.57;;;;;;;;;;5157688;27;20541;-69
2021/04/14 14:26:50;;;;;;;9.93;9.05;;;;;;;;;;5157631;27;20105;-69
2021/04/14 14:29:17;;;;;;;5.40;4.90;;;;;;;;;;5157573;27;20026;-69
2021/04/14 14:31:42;;;;;;;32.05;23.73;;;;;;;;;;5157707;27;20527;-69
2021/04/14 14:34:09;;;;;;;12.05;10.00;;;;;;;;;;5157509;27;20019;-69
2021/04/14 14:36:35;;;;;;;6.68;5.75;;;;;;;;;;5157095;27;20064;-69
2021/04/14 14:39:19;;;;;;;10.63;6.38;;;;;;;;;;5138387;27;20026;-70
2021/04/14 14:41:50;;;;;;;6.93;5.50;;;;;;;;;;5156992;27;20041;-69
2021/04/14 14:44:20;;;;;;;12.10;6.43;;;;;;;;;;5156872;27;20034;-69
2021/04/14 14:46:46;;;;;;;18.25;12.23;;;;;;;;;;5138133;27;20778;-69
2021/04/14 14:49:24;;;;;;;13.50;8.85;;;;;;;;;;5156830;27;20030;-70
2021/04/14 14:51:50;;;;;;;9.27;7.60;;;;;;;;;;5156767;27;20030;-61